createdAt,value
2019-05-19T00:02:46.248Z,16.87
2019-05-19T00:05:33.592Z,19.05
2019-05-19T00:08:20.707Z,15.68
2019-05-19T00:11:07.540Z,10.23
2019-05-19T00:13:55.910Z,15.00
2019-05-19T00:16:43.073Z,13.45
2019-05-19T00:19:31.377Z,15.90
2019-05-19T00:22:19.416Z,16.63
2019-05-19T00:25:06.819Z,13.38
2019-05-19T00:27:54.303Z,15.18
2019-05-19T00:30:49.270Z,11.68
2019-05-19T00:33:36.497Z,13.48
2019-05-19T00:36:25.876Z,13.88
2019-05-19T00:39:10.642Z,15.13
2019-05-19T00:41:57.559Z,16.15
2019-05-19T00:44:45.315Z,19.65
2019-05-19T00:47:32.514Z,18.92
2019-05-19T00:50:19.436Z,18.40
2019-05-19T00:53:06.753Z,17.77
2019-05-19T00:55:53.853Z,17.08
2019-05-19T00:58:41.574Z,18.62
2019-05-19T01:01:30.941Z,19.83
2019-05-19T01:04:17.681Z,19.37
2019-05-19T01:07:04.784Z,20.52
2019-05-19T01:09:51.526Z,21.62
2019-05-19T01:12:38.813Z,20.48
2019-05-19T01:15:39.879Z,20.95
2019-05-19T01:18:27.173Z,17.35
2019-05-19T01:21:15.312Z,20.45
2019-05-19T01:24:02.330Z,15.73
2019-05-19T01:26:49.424Z,17.98
2019-05-19T01:29:36.137Z,17.37
2019-05-19T01:32:24.176Z,19.73
2019-05-19T01:35:11.160Z,17.15
2019-05-19T01:37:57.975Z,18.35
2019-05-19T01:40:46.650Z,21.33
2019-05-19T01:43:33.786Z,19.65
2019-05-19T01:49:30.444Z,20.08
2019-05-19T01:52:18.042Z,20.12
2019-05-19T01:55:08.541Z,20.80
2019-05-19T01:57:56.884Z,21.67
2019-05-19T02:00:44.325Z,21.17
2019-05-19T02:03:32.450Z,21.40
2019-05-19T02:06:34.326Z,23.92
2019-05-19T02:09:28.630Z,23.58
2019-05-19T02:12:15.716Z,26.17
2019-05-19T02:15:03.202Z,21.20
2019-05-19T02:17:50.759Z,20.42
2019-05-19T02:20:38.588Z,20.48
2019-05-19T02:23:39.971Z,19.27
2019-05-19T02:26:27.454Z,18.65
2019-05-19T02:29:15.387Z,21.85
2019-05-19T02:32:02.200Z,19.92
2019-05-19T02:34:50.262Z,21.55
2019-05-19T02:37:38.184Z,18.30
2019-05-19T02:40:24.923Z,19.13
2019-05-19T02:43:11.819Z,22.25
2019-05-19T02:45:59.830Z,20.85
2019-05-19T02:51:53.435Z,24.23
2019-05-19T02:54:41.460Z,23.33
2019-05-19T02:57:28.486Z,23.92
2019-05-19T03:00:16.089Z,21.90
2019-05-19T03:03:03.087Z,23.70
2019-05-19T03:05:53.517Z,20.63
2019-05-19T03:08:40.591Z,23.05
2019-05-19T03:11:27.554Z,21.87
2019-05-19T03:14:14.478Z,19.90
2019-05-19T03:17:01.292Z,20.67
2019-05-19T03:19:49.191Z,21.52
2019-05-19T03:22:36.943Z,20.30
2019-05-19T03:25:24.398Z,23.15
2019-05-19T03:28:11.704Z,23.02
2019-05-19T03:31:05.390Z,16.03
2019-05-19T03:33:56.787Z,13.73
2019-05-19T03:36:44.690Z,16.87
2019-05-19T03:39:35.593Z,13.13
2019-05-19T03:42:29.922Z,17.03
2019-05-19T03:45:17.093Z,15.53
2019-05-19T03:48:04.214Z,17.10
2019-05-19T03:50:51.064Z,18.13
2019-05-19T03:53:38.955Z,20.80
2019-05-19T03:56:34.980Z,20.20
2019-05-19T03:59:22.923Z,23.30
2019-05-19T04:02:24.681Z,21.08
2019-05-19T04:05:11.914Z,16.50
2019-05-19T04:07:59.614Z,19.50
2019-05-19T04:10:46.660Z,23.00
2019-05-19T04:13:34.264Z,21.97
2019-05-19T04:16:22.005Z,23.10
2019-05-19T04:19:09.429Z,18.77
2019-05-19T04:21:56.666Z,20.20
2019-05-19T04:24:43.802Z,20.77
2019-05-19T04:27:31.181Z,20.70
2019-05-19T04:30:18.467Z,26.07
2019-05-19T04:39:18.333Z,28.27
2019-05-19T04:42:05.580Z,30.88
2019-05-19T04:44:52.919Z,28.70
2019-05-19T04:47:39.732Z,28.13
2019-05-19T04:50:26.573Z,30.25
2019-05-19T04:53:14.140Z,32.67
2019-05-19T04:56:00.917Z,29.50
2019-05-19T04:58:47.994Z,28.70
2019-05-19T05:01:36.398Z,32.03
2019-05-19T05:04:29.101Z,31.58
2019-05-19T05:07:12.979Z,34.17
2019-05-19T05:10:01.141Z,30.52
2019-05-19T05:12:48.208Z,31.17
2019-05-19T05:15:35.681Z,34.08
2019-05-19T05:18:23.945Z,31.35
2019-05-19T05:21:11.948Z,32.28
2019-05-19T05:23:59.087Z,32.35
2019-05-19T05:26:46.201Z,31.70
2019-05-19T05:29:33.902Z,32.70
2019-05-19T05:32:20.780Z,30.17
2019-05-19T05:35:08.166Z,32.20
2019-05-19T05:37:56.816Z,29.73
2019-05-19T05:40:43.515Z,30.62
2019-05-19T05:43:31.343Z,30.45
2019-05-19T05:46:18.155Z,31.25
2019-05-19T05:49:06.089Z,26.92
2019-05-19T05:51:52.824Z,27.62
2019-05-19T05:54:40.275Z,27.75
2019-05-19T05:57:28.899Z,28.58
2019-05-19T06:00:16.087Z,28.15
2019-05-19T06:03:02.946Z,29.58
2019-05-19T06:05:50.246Z,26.73
2019-05-19T06:08:37.399Z,25.45
2019-05-19T06:11:25.592Z,28.67
2019-05-19T06:14:14.037Z,26.08
2019-05-19T06:17:01.178Z,26.55
2019-05-19T06:22:58.027Z,26.05
2019-05-19T06:25:44.925Z,25.98
2019-05-19T06:28:31.968Z,23.17
2019-05-19T06:31:20.075Z,24.58
2019-05-19T06:34:07.495Z,23.58
2019-05-19T06:36:55.158Z,24.42
2019-05-19T06:39:40.851Z,25.58
2019-05-19T06:45:38.699Z,22.20
2019-05-19T06:51:32.866Z,20.98
2019-05-19T06:54:19.932Z,22.80
2019-05-19T06:57:07.357Z,24.67
2019-05-19T06:59:54.317Z,21.52
2019-05-19T07:02:40.957Z,24.05
2019-05-19T07:05:29.529Z,21.00
2019-05-19T07:08:16.850Z,25.08
2019-05-19T07:11:04.224Z,23.25
2019-05-19T07:13:51.444Z,23.65
2019-05-19T07:16:38.509Z,21.50
2019-05-19T07:19:25.367Z,21.05
2019-05-19T07:22:12.625Z,20.88
2019-05-19T07:24:59.299Z,23.02
2019-05-19T07:27:46.655Z,20.17
2019-05-19T07:30:34.065Z,20.48
2019-05-19T07:33:20.831Z,22.50
2019-05-19T07:36:07.609Z,23.17
2019-05-19T07:39:08.959Z,20.02
2019-05-19T07:41:56.063Z,20.50
2019-05-19T07:44:45.402Z,17.83
2019-05-19T07:47:30.713Z,18.45
2019-05-19T07:50:17.633Z,17.42
2019-05-19T07:53:04.482Z,17.52
2019-05-19T07:55:51.230Z,17.87
2019-05-19T07:58:38.532Z,18.33
2019-05-19T08:01:25.582Z,18.30
2019-05-19T08:04:12.352Z,17.58
2019-05-19T08:06:59.382Z,18.45
2019-05-19T08:09:46.823Z,16.15
2019-05-19T08:12:33.577Z,15.63
2019-05-19T08:15:20.934Z,15.35
2019-05-19T08:18:08.122Z,16.52
2019-05-19T08:20:55.286Z,16.20
2019-05-19T08:23:56.847Z,14.60
2019-05-19T08:26:29.422Z,16.00
2019-05-19T08:29:16.263Z,15.52
2019-05-19T08:32:03.429Z,16.77
2019-05-19T08:34:50.698Z,17.62
2019-05-19T08:37:37.579Z,17.55
2019-05-19T08:46:37.617Z,14.60
2019-05-19T08:58:43.292Z,14.02
2019-05-19T09:01:31.453Z,13.27
2019-05-19T09:04:18.153Z,13.27
2019-05-19T09:07:05.151Z,13.20
2019-05-19T09:12:58.152Z,12.68
2019-05-19T09:15:45.337Z,12.68
2019-05-19T09:18:33.263Z,12.02
2019-05-19T09:24:33.121Z,13.50
2019-05-19T09:30:25.971Z,12.43
2019-05-19T09:33:13.034Z,14.43
2019-05-19T09:36:00.179Z,12.27
2019-05-19T09:38:47.113Z,12.30
2019-05-19T09:41:33.849Z,11.43
2019-05-19T09:44:35.296Z,12.93
2019-05-19T09:47:24.123Z,12.77
2019-05-19T09:50:11.198Z,11.75
2019-05-19T09:52:59.367Z,12.63
2019-05-19T09:55:46.902Z,12.43
2019-05-19T09:58:35.130Z,11.63
2019-05-19T10:01:23.785Z,12.40
2019-05-19T10:04:11.670Z,11.95
2019-05-19T10:06:58.342Z,13.13
2019-05-19T10:09:57.726Z,11.35
2019-05-19T10:12:48.223Z,12.13
2019-05-19T10:15:35.063Z,11.70
2019-05-19T10:18:22.759Z,12.07
2019-05-19T10:21:11.711Z,11.18
2019-05-19T10:24:04.582Z,11.98
2019-05-19T10:26:51.920Z,10.48
2019-05-19T10:29:38.877Z,10.38
2019-05-19T10:32:25.966Z,10.45
2019-05-19T10:35:16.206Z,11.12
2019-05-19T10:38:03.326Z,11.32
2019-05-19T10:40:50.060Z,10.15
2019-05-19T10:43:37.543Z,9.88
2019-05-19T10:49:31.858Z,9.50
2019-05-19T10:52:19.647Z,9.95
2019-05-19T10:55:06.426Z,10.43
2019-05-19T10:57:54.541Z,10.60
2019-05-19T11:00:49.100Z,9.95
2019-05-19T11:03:36.298Z,9.45
2019-05-19T11:24:59.579Z,9.27
2019-05-19T11:31:08.999Z,10.45
2019-05-19T11:33:55.835Z,8.77
2019-05-19T11:36:42.947Z,7.93
2019-05-19T11:39:29.973Z,9.70
2019-05-19T11:51:35.141Z,8.10
2019-05-19T11:54:21.934Z,7.55
2019-05-19T11:57:08.601Z,7.60
2019-05-19T12:03:01.319Z,9.27
2019-05-19T12:05:49.319Z,7.70
2019-05-19T12:11:42.843Z,10.20
2019-05-19T12:14:29.505Z,9.53
2019-05-19T12:17:16.336Z,8.07
2019-05-19T12:20:03.252Z,6.28
2019-05-19T12:22:50.385Z,6.30
2019-05-19T12:25:40.785Z,6.90
2019-05-19T12:28:27.877Z,7.10
2019-05-19T12:31:29.550Z,9.38
2019-05-19T12:34:16.343Z,6.57
2019-05-19T12:37:03.078Z,9.80
2019-05-19T12:39:50.646Z,7.60
2019-05-19T12:42:37.669Z,7.30
2019-05-19T12:45:24.916Z,6.35
2019-05-19T12:48:12.055Z,7.90
2019-05-19T12:50:58.991Z,8.45
2019-05-19T12:53:46.003Z,6.30
2019-05-19T12:56:39.849Z,6.93
2019-05-19T13:02:26.349Z,5.87
2019-05-19T13:05:13.017Z,6.45
2019-05-19T13:08:00.057Z,7.00
2019-05-19T13:10:47.774Z,11.90
2019-05-19T13:13:35.812Z,6.62
2019-05-19T13:16:23.767Z,7.40
2019-05-19T13:19:10.984Z,6.62
2019-05-19T13:22:00.127Z,5.85
2019-05-19T13:27:53.722Z,8.10
2019-05-19T13:30:43.533Z,7.07
2019-05-19T13:33:29.060Z,6.03
2019-05-19T13:36:17.714Z,6.87
2019-05-19T13:39:05.878Z,5.93
2019-05-19T13:41:52.636Z,6.75
2019-05-19T13:44:41.023Z,6.87
2019-05-19T13:47:28.738Z,6.20
2019-05-19T13:50:15.477Z,5.95
2019-05-19T13:53:16.844Z,6.05
2019-05-19T13:56:04.074Z,5.62
2019-05-19T13:58:50.663Z,5.68
2019-05-19T14:01:37.473Z,5.90
2019-05-19T14:07:30.731Z,5.18
2019-05-19T14:10:18.163Z,5.53
2019-05-19T14:16:11.255Z,4.90
2019-05-19T14:19:01.692Z,6.37
2019-05-19T14:21:48.869Z,8.18
2019-05-19T14:24:35.621Z,5.37
2019-05-19T14:27:30.438Z,5.47
2019-05-19T14:36:23.676Z,5.40
2019-05-19T14:39:10.609Z,5.80
2019-05-19T14:41:58.185Z,5.93
2019-05-19T14:44:45.864Z,5.90
2019-05-19T14:47:34.010Z,6.18
2019-05-19T14:53:28.174Z,6.18
2019-05-19T14:56:18.603Z,6.50
2019-05-19T14:59:06.806Z,6.30
2019-05-19T15:01:54.252Z,5.82
2019-05-19T15:04:45.010Z,5.78
2019-05-19T15:10:43.953Z,6.03
2019-05-19T15:16:43.065Z,9.68
2019-05-19T15:22:37.289Z,5.75
2019-05-19T15:28:31.158Z,4.75
2019-05-19T15:31:20.913Z,5.12
2019-05-19T15:34:08.060Z,5.30
2019-05-19T15:36:58.135Z,5.10
2019-05-19T15:42:53.850Z,5.90
2019-05-19T15:45:39.318Z,5.32
2019-05-19T15:48:26.035Z,8.82
2019-05-19T15:51:13.248Z,5.30
2019-05-19T15:54:00.394Z,5.53
2019-05-19T15:56:47.309Z,5.10
2019-05-19T15:59:35.732Z,5.68
2019-05-19T16:02:22.617Z,5.60
2019-05-19T16:05:09.612Z,6.28
2019-05-19T16:07:58.313Z,4.80
2019-05-19T16:13:51.964Z,4.78
2019-05-19T16:16:38.910Z,5.22
2019-05-19T16:19:27.545Z,5.22
2019-05-19T16:22:14.828Z,4.57
2019-05-19T16:28:08.247Z,5.68
2019-05-19T16:30:55.345Z,4.80
2019-05-19T16:33:43.380Z,5.12
2019-05-19T16:36:30.433Z,4.60
2019-05-19T16:42:24.684Z,4.87
2019-05-19T16:45:11.529Z,4.62
2019-05-19T16:47:58.829Z,4.37
2019-05-19T16:50:45.979Z,4.57
2019-05-19T16:53:33.274Z,5.12
2019-05-19T16:56:22.522Z,4.15
2019-05-19T16:59:09.434Z,4.72
2019-05-19T17:01:57.263Z,5.30
2019-05-19T17:04:44.296Z,5.00
2019-05-19T17:07:31.477Z,5.10
2019-05-19T17:10:18.617Z,5.40
2019-05-19T17:13:05.629Z,5.00
2019-05-19T17:15:52.376Z,4.65
2019-05-19T17:18:40.790Z,4.93
2019-05-19T17:21:28.096Z,5.10
2019-05-19T17:24:15.327Z,4.85
2019-05-19T17:27:02.367Z,6.72
2019-05-19T17:29:49.274Z,4.40
2019-05-19T17:32:36.613Z,5.03
2019-05-19T17:35:24.225Z,5.10
2019-05-19T17:38:11.243Z,5.20
2019-05-19T17:40:59.584Z,4.93
2019-05-19T17:43:46.420Z,4.82
2019-05-19T17:46:33.673Z,5.40
2019-05-19T17:49:21.065Z,4.80
2019-05-19T17:52:07.850Z,4.87
2019-05-19T17:54:55.048Z,5.27
2019-05-19T17:57:57.445Z,4.55
2019-05-19T18:00:45.890Z,5.40
2019-05-19T18:03:33.383Z,4.95
2019-05-19T18:06:20.299Z,4.55
2019-05-19T18:09:21.757Z,5.47
2019-05-19T18:12:08.472Z,5.53
2019-05-19T18:14:55.388Z,4.78
2019-05-19T18:17:42.430Z,5.03
2019-05-19T18:20:29.519Z,5.10
2019-05-19T18:23:23.493Z,4.72
2019-05-19T18:26:10.830Z,4.87
2019-05-19T18:28:57.695Z,5.35
2019-05-19T18:31:45.174Z,5.45
2019-05-19T18:34:33.070Z,5.87
2019-05-19T18:37:20.114Z,5.87
2019-05-19T18:43:14.159Z,5.20
2019-05-19T18:46:01.190Z,4.82
2019-05-19T18:48:48.510Z,7.05
2019-05-19T18:51:35.630Z,5.12
2019-05-19T18:54:23.161Z,6.05
2019-05-19T18:57:10.194Z,6.55
2019-05-19T18:59:57.064Z,5.60
2019-05-19T19:02:44.030Z,6.28
2019-05-19T19:05:31.451Z,6.05
2019-05-19T19:08:19.649Z,6.05
2019-05-19T19:11:07.379Z,6.30
2019-05-19T19:13:54.290Z,5.35
2019-05-19T19:16:40.997Z,6.72
2019-05-19T19:19:28.218Z,7.50
2019-05-19T19:22:14.946Z,6.70
2019-05-19T19:25:01.736Z,5.72
2019-05-19T19:27:49.538Z,5.72
2019-05-19T19:30:36.761Z,5.62
2019-05-19T19:33:24.636Z,5.57
2019-05-19T19:36:11.755Z,6.70
2019-05-19T19:38:59.669Z,7.72
2019-05-19T19:42:01.327Z,7.57
2019-05-19T19:44:55.041Z,6.62
2019-05-19T19:50:48.198Z,6.60
2019-05-19T19:53:36.093Z,7.03
2019-05-19T19:56:23.352Z,7.03
2019-05-19T19:59:11.451Z,7.95
2019-05-19T20:02:12.712Z,5.85
2019-05-19T20:04:59.523Z,7.78
2019-05-19T20:07:46.519Z,7.97
2019-05-19T20:10:40.085Z,6.65
2019-05-19T20:13:27.217Z,7.97
2019-05-19T20:16:14.214Z,6.72
2019-05-19T20:19:01.576Z,8.52
2019-05-19T20:21:51.873Z,7.40
2019-05-19T20:27:45.023Z,10.48
2019-05-19T20:30:36.204Z,8.48
2019-05-19T20:33:19.978Z,9.75
2019-05-19T20:36:06.991Z,8.65
2019-05-19T20:42:08.317Z,13.13
2019-05-19T20:44:55.657Z,9.23
2019-05-19T20:47:44.656Z,10.27
2019-05-19T20:50:34.636Z,12.27
2019-05-19T20:53:22.438Z,14.82
2019-05-19T20:56:10.126Z,10.95
2019-05-19T20:58:57.877Z,9.90
2019-05-19T21:01:45.170Z,14.27
2019-05-19T21:04:31.748Z,13.60
2019-05-19T21:07:21.301Z,11.18
2019-05-19T21:10:05.861Z,11.77
2019-05-19T21:12:53.576Z,11.55
2019-05-19T21:15:40.632Z,11.50
2019-05-19T21:18:27.375Z,13.48
2019-05-19T21:21:22.016Z,15.18
2019-05-19T21:24:11.573Z,13.60
2019-05-19T21:26:57.049Z,12.23
2019-05-19T21:29:44.199Z,12.37
2019-05-19T21:32:30.881Z,11.88
2019-05-19T21:35:18.661Z,12.27
2019-05-19T21:38:06.248Z,13.32
2019-05-19T21:40:53.744Z,11.75
2019-05-19T21:43:41.363Z,16.02
2019-05-19T21:46:28.236Z,11.30
2019-05-19T21:49:15.340Z,12.30
2019-05-19T21:52:02.266Z,13.48
2019-05-19T21:54:49.590Z,13.95
2019-05-19T21:57:43.861Z,14.35
2019-05-19T22:00:30.462Z,13.38
2019-05-19T22:03:18.398Z,13.95
2019-05-19T22:06:06.315Z,13.95
2019-05-19T22:08:53.255Z,13.10
2019-05-19T22:11:39.982Z,14.32
2019-05-19T22:14:27.404Z,11.82
2019-05-19T22:17:14.894Z,11.15
2019-05-19T22:20:02.109Z,11.12
2019-05-19T22:22:50.233Z,10.48
2019-05-19T22:25:51.320Z,9.88
2019-05-19T22:28:38.438Z,15.48
2019-05-19T22:31:36.280Z,12.02
2019-05-19T22:34:12.874Z,14.02
2019-05-19T22:36:59.579Z,13.85
2019-05-19T22:39:46.784Z,13.57
2019-05-19T22:42:35.726Z,13.95
2019-05-19T22:45:22.884Z,14.65
2019-05-19T22:48:09.683Z,15.27
2019-05-19T22:50:56.582Z,15.73
2019-05-19T22:53:44.015Z,14.38
2019-05-19T22:56:31.179Z,15.00
2019-05-19T22:59:19.985Z,16.02
2019-05-19T23:02:05.645Z,15.27
2019-05-19T23:04:53.596Z,16.73
2019-05-19T23:07:48.494Z,16.00
2019-05-19T23:10:36.252Z,15.73
2019-05-19T23:13:23.133Z,15.05
2019-05-19T23:19:16.097Z,15.73
2019-05-19T23:22:03.737Z,16.40
2019-05-19T23:24:50.522Z,15.60
2019-05-19T23:27:37.759Z,19.98
2019-05-19T23:30:24.841Z,15.85
2019-05-19T23:33:11.645Z,16.35
2019-05-19T23:35:59.472Z,17.77
2019-05-19T23:38:47.455Z,17.45
2019-05-19T23:41:34.608Z,16.55
2019-05-19T23:44:28.663Z,19.25
2019-05-19T23:47:16.261Z,16.83
2019-05-19T23:50:03.201Z,17.77
2019-05-19T23:52:52.395Z,16.85
2019-05-19T23:55:40.407Z,17.15
2019-05-19T23:58:34.351Z,16.87
